createdAt,value
2018-10-18T00:01:15.427Z,82.03
2018-10-18T00:03:44.561Z,82.28
2018-10-18T00:06:13.845Z,82.27
2018-10-18T00:08:42.969Z,82.97
2018-10-18T00:11:12.481Z,82.86
2018-10-18T00:13:41.800Z,82.46
2018-10-18T00:16:11.116Z,83.41
2018-10-18T00:18:40.409Z,83.24
2018-10-18T00:21:09.713Z,83.10
2018-10-18T00:23:38.962Z,82.51
2018-10-18T00:26:08.387Z,82.69
2018-10-18T00:28:37.564Z,82.22
2018-10-18T00:31:06.923Z,82.72
2018-10-18T00:33:36.167Z,83.25
2018-10-18T00:36:05.773Z,83.49
2018-10-18T00:38:35.112Z,83.26
2018-10-18T00:41:04.383Z,84.15
2018-10-18T00:43:33.711Z,83.75
2018-10-18T00:46:02.591Z,83.49
2018-10-18T00:48:31.795Z,83.78
2018-10-18T00:51:01.077Z,83.15
2018-10-18T00:53:30.391Z,83.43
2018-10-18T00:55:59.713Z,83.84
2018-10-18T00:58:28.856Z,84.10
2018-10-18T01:00:58.069Z,84.30
2018-10-18T01:03:27.400Z,85.18
2018-10-18T01:05:56.718Z,85.10
2018-10-18T01:08:25.976Z,84.56
2018-10-18T01:10:55.272Z,84.14
2018-10-18T01:13:24.599Z,84.06
2018-10-18T01:15:53.907Z,83.87
2018-10-18T01:18:23.147Z,83.88
2018-10-18T01:20:52.531Z,83.68
2018-10-18T01:23:21.799Z,83.59
2018-10-18T01:25:57.248Z,83.30
2018-10-18T01:28:26.143Z,83.66
2018-10-18T01:30:55.025Z,83.77
2018-10-18T01:33:23.908Z,83.34
2018-10-18T01:35:52.826Z,83.29
2018-10-18T01:38:21.723Z,84.05
2018-10-18T01:40:50.624Z,84.14
2018-10-18T01:43:19.545Z,84.64
2018-10-18T01:45:48.429Z,84.93
2018-10-18T01:48:17.448Z,85.60
2018-10-18T01:50:46.292Z,85.91
2018-10-18T01:53:15.180Z,85.77
2018-10-18T01:55:44.044Z,86.89
2018-10-18T01:58:12.916Z,85.99
2018-10-18T02:00:42.096Z,86.95
2018-10-18T02:03:11.389Z,86.70
2018-10-18T02:05:40.596Z,86.40
2018-10-18T02:08:09.860Z,86.20
2018-10-18T02:10:38.995Z,87.01
2018-10-18T02:13:08.212Z,86.69
2018-10-18T02:15:37.380Z,87.01
2018-10-18T02:18:09.897Z,86.49
2018-10-18T02:20:38.795Z,85.36
2018-10-18T02:23:08.072Z,85.16
2018-10-18T02:25:37.492Z,85.20
2018-10-18T02:28:07.080Z,86.08
2018-10-18T02:30:36.395Z,86.81
2018-10-18T02:33:05.681Z,86.60
2018-10-18T02:35:34.986Z,86.20
2018-10-18T02:38:04.305Z,86.00
2018-10-18T02:40:33.535Z,86.95
2018-10-18T02:43:02.843Z,86.23
2018-10-18T02:45:32.320Z,86.73
2018-10-18T02:48:01.600Z,87.28
2018-10-18T02:50:30.752Z,87.19
2018-10-18T02:53:00.127Z,87.36
2018-10-18T02:55:29.377Z,87.09
2018-10-18T02:57:58.552Z,87.81
2018-10-18T03:00:27.891Z,87.54
2018-10-18T03:02:58.374Z,88.00
2018-10-18T03:05:27.715Z,87.97
2018-10-18T03:07:57.113Z,88.33
2018-10-18T03:10:26.418Z,88.50
2018-10-18T03:12:55.668Z,86.82
2018-10-18T03:15:24.570Z,86.57
2018-10-18T03:17:53.459Z,87.57
2018-10-18T03:20:22.364Z,87.62
2018-10-18T03:22:51.779Z,87.71
2018-10-18T03:25:21.084Z,88.18
2018-10-18T03:27:50.405Z,87.94
2018-10-18T03:30:19.706Z,88.57
2018-10-18T03:32:48.993Z,88.85
2018-10-18T03:35:18.072Z,89.10
2018-10-18T03:37:47.412Z,88.52
2018-10-18T03:40:16.641Z,88.55
2018-10-18T03:42:45.941Z,88.19
2018-10-18T03:45:15.269Z,88.60
2018-10-18T03:47:44.439Z,88.14
2018-10-18T03:50:13.661Z,88.14
2018-10-18T03:52:42.840Z,89.02
2018-10-18T03:55:12.179Z,88.39
2018-10-18T03:57:41.344Z,89.06
2018-10-18T04:00:10.691Z,89.32
2018-10-18T04:02:39.975Z,89.16
2018-10-18T04:05:10.012Z,89.52
2018-10-18T04:07:39.395Z,89.16
2018-10-18T04:10:09.008Z,89.23
2018-10-18T04:12:38.064Z,89.28
2018-10-18T04:15:07.707Z,89.65
2018-10-18T04:17:37.024Z,89.57
2018-10-18T04:20:07.005Z,89.58
2018-10-18T04:22:36.235Z,89.82
2018-10-18T04:25:05.865Z,90.22
2018-10-18T04:27:35.220Z,89.67
2018-10-18T04:30:04.511Z,89.46
2018-10-18T04:32:33.828Z,89.81
2018-10-18T04:35:03.112Z,89.36
2018-10-18T04:37:32.466Z,90.39
2018-10-18T04:40:01.735Z,90.18
2018-10-18T04:42:30.901Z,90.08
2018-10-18T04:45:00.214Z,90.27
2018-10-18T04:47:29.520Z,90.61
2018-10-18T04:49:58.628Z,90.81
2018-10-18T04:52:27.911Z,91.18
2018-10-18T04:54:57.280Z,91.20
2018-10-18T04:57:26.377Z,90.98
2018-10-18T04:59:55.703Z,90.94
2018-10-18T05:02:24.978Z,91.02
2018-10-18T05:05:05.076Z,90.58
2018-10-18T05:07:34.361Z,91.12
2018-10-18T05:10:03.632Z,90.68
2018-10-18T05:12:32.894Z,90.96
2018-10-18T05:15:02.041Z,90.86
2018-10-18T05:17:31.316Z,90.65
2018-10-18T05:20:00.630Z,90.76
2018-10-18T05:22:29.829Z,90.42
2018-10-18T05:24:59.175Z,90.90
2018-10-18T05:27:28.428Z,91.29
2018-10-18T05:29:57.619Z,90.91
2018-10-18T05:32:26.844Z,90.39
2018-10-18T05:34:56.236Z,91.35
2018-10-18T05:37:25.570Z,91.57
2018-10-18T05:39:54.869Z,91.39
2018-10-18T05:42:24.156Z,91.13
2018-10-18T05:44:53.463Z,91.21
2018-10-18T05:47:22.784Z,90.66
2018-10-18T05:49:52.165Z,90.32
2018-10-18T05:52:21.439Z,90.74
2018-10-18T05:54:50.721Z,90.72
2018-10-18T05:57:20.094Z,90.74
2018-10-18T05:59:49.459Z,91.30
2018-10-18T06:02:18.764Z,90.70
2018-10-18T06:04:48.075Z,90.45
2018-10-18T06:07:17.468Z,91.00
2018-10-18T06:09:46.789Z,90.54
2018-10-18T06:12:16.149Z,90.52
2018-10-18T06:14:45.457Z,90.53
2018-10-18T06:17:14.751Z,90.49
2018-10-18T06:19:44.051Z,89.90
2018-10-18T06:22:13.337Z,89.55
2018-10-18T06:24:42.656Z,89.85
2018-10-18T06:27:11.961Z,90.26
2018-10-18T06:29:41.232Z,89.74
2018-10-18T06:32:10.487Z,89.96
2018-10-18T06:34:39.743Z,89.31
2018-10-18T06:37:09.362Z,89.56
2018-10-18T06:39:38.680Z,88.85
2018-10-18T06:42:07.984Z,88.04
2018-10-18T06:44:37.272Z,88.42
2018-10-18T06:47:06.809Z,88.26
2018-10-18T06:49:36.128Z,87.92
2018-10-18T06:52:05.608Z,87.52
2018-10-18T06:54:34.911Z,87.05
2018-10-18T06:57:04.216Z,87.09
2018-10-18T06:59:33.517Z,85.87
2018-10-18T07:02:02.871Z,85.01
2018-10-18T07:04:32.159Z,84.72
2018-10-18T07:07:01.406Z,85.05
2018-10-18T07:09:30.748Z,85.51
2018-10-18T07:12:00.342Z,85.67
2018-10-18T07:14:29.584Z,85.57
2018-10-18T07:16:58.787Z,84.82
2018-10-18T07:19:28.080Z,84.91
2018-10-18T07:21:57.408Z,83.30
2018-10-18T07:24:26.688Z,82.93
2018-10-18T07:26:56.128Z,83.03
2018-10-18T07:29:25.468Z,82.44
2018-10-18T07:31:54.767Z,81.90
2018-10-18T07:34:24.051Z,80.96
2018-10-18T07:36:53.292Z,79.69
2018-10-18T07:39:22.464Z,79.62
2018-10-18T07:41:51.670Z,77.82
2018-10-18T07:44:20.864Z,74.92
2018-10-18T07:46:50.155Z,73.97
2018-10-18T07:49:19.486Z,73.84
2018-10-18T07:51:48.785Z,73.70
2018-10-18T07:54:18.164Z,74.17
2018-10-18T07:56:47.468Z,74.20
2018-10-18T07:59:16.789Z,73.87
2018-10-18T08:01:46.071Z,73.33
2018-10-18T08:04:15.387Z,72.88
2018-10-18T08:06:44.799Z,71.99
2018-10-18T08:09:14.840Z,71.24
2018-10-18T08:11:44.088Z,70.99
2018-10-18T08:14:13.408Z,70.92
2018-10-18T08:16:42.763Z,70.41
2018-10-18T08:19:12.075Z,69.87
2018-10-18T08:21:41.300Z,69.76
2018-10-18T08:24:10.599Z,70.36
2018-10-18T08:26:39.892Z,70.27
2018-10-18T08:29:09.293Z,69.42
2018-10-18T08:31:38.693Z,69.21
2018-10-18T08:34:07.921Z,69.34
2018-10-18T08:36:37.352Z,68.87
2018-10-18T08:39:09.207Z,68.36
2018-10-18T08:41:38.533Z,68.21
2018-10-18T08:44:07.877Z,68.35
2018-10-18T08:46:37.161Z,67.85
2018-10-18T08:49:06.716Z,67.14
2018-10-18T08:51:36.000Z,67.49
2018-10-18T08:54:05.361Z,67.17
2018-10-18T08:56:34.607Z,66.14
2018-10-18T08:59:03.870Z,65.89
2018-10-18T09:01:33.087Z,65.79
2018-10-18T09:04:02.271Z,66.36
2018-10-18T09:06:31.557Z,66.62
2018-10-18T09:09:01.038Z,65.14
2018-10-18T09:11:30.396Z,64.36
2018-10-18T09:13:59.685Z,65.58
2018-10-18T09:16:28.948Z,64.16
2018-10-18T09:18:58.248Z,64.08
2018-10-18T09:21:27.555Z,63.17
2018-10-18T09:23:56.879Z,63.60
2018-10-18T09:26:26.162Z,62.83
2018-10-18T09:28:55.444Z,61.49
2018-10-18T09:31:24.663Z,61.81
2018-10-18T09:33:53.885Z,62.10
2018-10-18T09:36:23.160Z,59.98
2018-10-18T09:38:52.560Z,59.41
2018-10-18T09:41:22.320Z,59.27
2018-10-18T09:43:55.640Z,58.89
2018-10-18T09:46:24.647Z,57.91
2018-10-18T09:48:53.651Z,58.87
2018-10-18T09:51:22.699Z,55.99
2018-10-18T09:53:51.688Z,56.78
2018-10-18T09:56:20.760Z,56.10
2018-10-18T09:58:49.731Z,56.36
2018-10-18T10:01:23.913Z,56.48
2018-10-18T10:03:53.016Z,57.29
2018-10-18T10:06:22.050Z,57.77
2018-10-18T10:08:51.069Z,56.73
2018-10-18T10:11:20.032Z,56.17
2018-10-18T10:13:49.091Z,54.51
2018-10-18T10:16:18.582Z,54.64
2018-10-18T10:18:47.848Z,53.57
2018-10-18T10:21:17.008Z,53.22
2018-10-18T10:23:46.407Z,52.22
2018-10-18T10:26:15.403Z,52.78
2018-10-18T10:28:44.385Z,51.11
2018-10-18T10:31:13.455Z,50.90
2018-10-18T10:33:42.468Z,49.94
2018-10-18T10:36:11.484Z,49.93
2018-10-18T10:38:40.574Z,50.28
2018-10-18T10:41:09.600Z,50.26
2018-10-18T10:43:38.559Z,48.83
2018-10-18T10:46:07.625Z,48.89
2018-10-18T10:48:36.565Z,47.11
2018-10-18T10:51:05.686Z,48.60
2018-10-18T10:53:34.683Z,47.60
2018-10-18T10:56:03.790Z,49.21
2018-10-18T10:58:32.804Z,48.23
2018-10-18T11:01:07.597Z,47.94
2018-10-18T11:03:37.006Z,47.67
2018-10-18T11:06:06.131Z,47.55
2018-10-18T11:08:35.588Z,45.26
2018-10-18T11:11:04.831Z,44.86
2018-10-18T11:13:33.811Z,46.99
2018-10-18T11:16:03.747Z,44.55
2018-10-18T11:18:33.924Z,45.97
2018-10-18T11:21:03.860Z,46.75
2018-10-18T11:23:33.388Z,44.70
2018-10-18T11:26:02.478Z,45.57
2018-10-18T11:28:31.516Z,44.84
2018-10-18T11:31:00.601Z,43.20
2018-10-18T11:33:29.747Z,45.30
2018-10-18T11:35:58.878Z,43.57
2018-10-18T11:38:27.872Z,43.29
2018-10-18T11:40:56.890Z,44.62
2018-10-18T11:43:25.927Z,43.64
2018-10-18T11:45:54.908Z,44.00
2018-10-18T11:48:23.985Z,43.91
2018-10-18T11:50:53.008Z,44.26
2018-10-18T11:53:22.030Z,41.51
2018-10-18T11:55:51.044Z,43.79
2018-10-18T11:58:20.106Z,44.19
2018-10-18T12:00:49.115Z,43.54
2018-10-18T12:03:18.092Z,43.49
2018-10-18T12:05:47.171Z,42.96
2018-10-18T12:08:16.176Z,42.53
2018-10-18T12:10:45.200Z,43.02
2018-10-18T12:13:14.243Z,42.37
2018-10-18T12:15:43.231Z,42.30
2018-10-18T12:18:12.252Z,42.31
2018-10-18T12:20:41.263Z,42.67
2018-10-18T12:23:10.306Z,42.55
2018-10-18T12:25:39.276Z,42.92
2018-10-18T12:28:08.310Z,41.11
2018-10-18T12:30:37.325Z,41.96
2018-10-18T12:33:06.393Z,42.52
2018-10-18T12:35:35.411Z,43.02
2018-10-18T12:38:04.403Z,41.24
2018-10-18T12:40:33.525Z,41.36
2018-10-18T12:43:02.452Z,43.41
2018-10-18T12:45:31.492Z,40.77
2018-10-18T12:48:00.575Z,41.10
2018-10-18T12:50:29.565Z,41.99
2018-10-18T12:52:58.552Z,41.87
2018-10-18T12:55:27.564Z,40.31
2018-10-18T12:57:56.580Z,40.24
2018-10-18T13:00:25.576Z,39.84
2018-10-18T13:02:54.598Z,39.85
2018-10-18T13:05:23.618Z,39.97
2018-10-18T13:07:52.649Z,39.21
2018-10-18T13:10:21.712Z,40.16
2018-10-18T13:12:50.736Z,40.48
2018-10-18T13:15:19.735Z,39.56
2018-10-18T13:17:49.108Z,39.94
2018-10-18T13:20:18.168Z,38.94
2018-10-18T13:22:47.137Z,39.45
2018-10-18T13:25:16.165Z,40.93
2018-10-18T13:27:45.172Z,40.13
2018-10-18T13:30:14.271Z,40.03
2018-10-18T13:32:43.235Z,40.39
2018-10-18T13:35:12.306Z,39.17
2018-10-18T13:37:41.310Z,39.83
2018-10-18T13:40:10.336Z,40.93
2018-10-18T13:42:39.352Z,40.21
2018-10-18T13:45:08.720Z,38.72
2018-10-18T13:47:37.792Z,38.88
2018-10-18T13:50:07.453Z,40.01
2018-10-18T13:52:37.162Z,39.52
2018-10-18T13:55:06.842Z,39.58
2018-10-18T13:57:35.898Z,41.55
2018-10-18T14:00:29.158Z,40.84
2018-10-18T14:02:58.253Z,41.03
2018-10-18T14:05:27.817Z,40.64
2018-10-18T14:07:57.339Z,40.30
2018-10-18T14:10:26.337Z,42.71
2018-10-18T14:12:55.461Z,40.72
2018-10-18T14:15:24.459Z,40.73
2018-10-18T14:17:53.504Z,40.80
2018-10-18T14:20:22.449Z,42.28
2018-10-18T14:22:51.445Z,41.21
2018-10-18T14:25:20.460Z,42.55
2018-10-18T14:27:49.523Z,42.51
2018-10-18T14:30:18.681Z,43.29
2018-10-18T14:32:47.639Z,43.11
2018-10-18T14:35:16.745Z,44.42
2018-10-18T14:37:45.680Z,43.04
2018-10-18T14:40:14.749Z,42.36
2018-10-18T14:42:44.008Z,42.02
2018-10-18T14:45:12.932Z,42.55
2018-10-18T14:47:42.038Z,41.94
2018-10-18T14:50:13.174Z,42.66
2018-10-18T14:52:42.440Z,42.24
2018-10-18T14:55:11.462Z,42.99
2018-10-18T14:57:40.918Z,42.83
2018-10-18T15:00:11.653Z,43.13
2018-10-18T15:02:40.711Z,43.04
2018-10-18T15:05:10.888Z,43.29
2018-10-18T15:07:40.472Z,44.39
2018-10-18T15:10:13.032Z,42.81
2018-10-18T15:12:42.409Z,44.35
2018-10-18T15:15:12.904Z,44.46
2018-10-18T15:17:42.305Z,44.59
2018-10-18T15:20:12.295Z,44.56
2018-10-18T15:22:42.111Z,45.50
2018-10-18T15:25:12.089Z,45.50
2018-10-18T15:27:41.932Z,45.03
2018-10-18T15:30:11.643Z,45.92
2018-10-18T15:32:40.705Z,45.71
2018-10-18T15:35:10.974Z,44.25
2018-10-18T15:37:40.570Z,44.36
2018-10-18T15:40:09.929Z,44.53
2018-10-18T15:42:38.944Z,44.59
2018-10-18T15:45:08.679Z,45.03
2018-10-18T15:47:37.882Z,45.93
2018-10-18T15:50:08.212Z,46.45
2018-10-18T15:52:37.217Z,47.59
2018-10-18T15:55:06.708Z,48.25
2018-10-18T15:57:35.678Z,49.28
2018-10-18T16:00:04.988Z,50.12
2018-10-18T16:02:33.994Z,51.78
2018-10-18T16:05:03.099Z,51.82
2018-10-18T16:07:32.121Z,50.08
2018-10-18T16:10:01.120Z,50.39
2018-10-18T16:12:30.137Z,51.12
2018-10-18T16:14:59.121Z,53.05
2018-10-18T16:17:28.121Z,53.81
2018-10-18T16:20:00.085Z,54.59
2018-10-18T16:22:29.101Z,55.38
2018-10-18T16:24:58.125Z,56.53
2018-10-18T16:27:27.145Z,56.77
2018-10-18T16:29:56.116Z,56.64
2018-10-18T16:32:25.147Z,56.91
2018-10-18T16:34:54.193Z,56.80
2018-10-18T16:37:23.173Z,56.77
2018-10-18T16:39:52.269Z,56.55
2018-10-18T16:42:21.257Z,58.18
2018-10-18T16:44:50.233Z,57.84
2018-10-18T16:47:19.208Z,57.63
2018-10-18T16:49:48.229Z,58.34
2018-10-18T16:52:17.383Z,58.93
2018-10-18T16:54:46.364Z,59.33
2018-10-18T16:57:15.399Z,59.39
2018-10-18T16:59:44.412Z,59.45
2018-10-18T17:02:13.412Z,60.18
2018-10-18T17:04:42.479Z,60.26
2018-10-18T17:07:11.540Z,60.59
2018-10-18T17:09:40.542Z,60.74
2018-10-18T17:12:09.611Z,61.31
2018-10-18T17:14:38.591Z,62.11
2018-10-18T17:17:07.583Z,62.76
2018-10-18T17:19:36.626Z,63.07
2018-10-18T17:22:05.753Z,63.82
2018-10-18T17:24:34.787Z,63.66
2018-10-18T17:27:03.930Z,63.86
2018-10-18T17:29:32.914Z,64.40
2018-10-18T17:32:02.008Z,64.21
2018-10-18T17:34:30.944Z,65.09
2018-10-18T17:37:00.887Z,64.63
2018-10-18T17:39:29.896Z,65.08
2018-10-18T17:41:58.979Z,65.34
2018-10-18T17:44:28.103Z,65.61
2018-10-18T17:46:57.141Z,66.05
2018-10-18T17:49:26.176Z,66.14
2018-10-18T17:51:55.341Z,66.66
2018-10-18T17:54:24.337Z,66.53
2018-10-18T17:56:53.336Z,66.73
2018-10-18T17:59:22.325Z,67.44
2018-10-18T18:01:51.374Z,67.62
2018-10-18T18:04:20.355Z,68.03
2018-10-18T18:06:49.436Z,68.31
2018-10-18T18:09:18.437Z,68.81
2018-10-18T18:11:47.449Z,68.95
2018-10-18T18:14:16.466Z,69.26
2018-10-18T18:16:45.465Z,70.08
2018-10-18T18:19:14.449Z,70.88
2018-10-18T18:21:43.450Z,71.64
2018-10-18T18:24:12.476Z,72.43
2018-10-18T18:26:45.409Z,72.67
2018-10-18T18:29:10.486Z,72.51
2018-10-18T18:31:39.724Z,73.17
2018-10-18T18:34:08.642Z,73.95
2018-10-18T18:36:37.538Z,72.94
2018-10-18T18:39:08.745Z,72.99
2018-10-18T18:41:37.944Z,73.55
2018-10-18T18:44:06.888Z,73.31
2018-10-18T18:46:35.791Z,74.25
2018-10-18T18:49:04.757Z,74.57
2018-10-18T18:51:33.712Z,74.79
2018-10-18T18:54:02.583Z,74.80
2018-10-18T18:56:31.502Z,74.58
2018-10-18T18:59:00.406Z,74.89
2018-10-18T19:01:29.319Z,75.21
2018-10-18T19:03:58.232Z,75.49
2018-10-18T19:06:27.123Z,75.66
2018-10-18T19:08:56.054Z,75.91
2018-10-18T19:11:24.987Z,76.19
2018-10-18T19:13:53.897Z,76.43
2018-10-18T19:16:23.140Z,76.52
2018-10-18T19:18:52.147Z,75.21
2018-10-18T19:21:21.060Z,75.39
2018-10-18T19:23:49.993Z,75.74
2018-10-18T19:26:19.092Z,76.02
2018-10-18T19:28:48.085Z,76.44
2018-10-18T19:31:16.994Z,75.31
2018-10-18T19:33:45.923Z,76.02
2018-10-18T19:36:14.841Z,76.30
2018-10-18T19:38:43.771Z,76.73
2018-10-18T19:41:12.752Z,77.19
2018-10-18T19:43:41.728Z,77.16
2018-10-18T19:46:10.713Z,75.81
2018-10-18T19:48:39.643Z,76.51
2018-10-18T19:51:08.580Z,76.68
2018-10-18T19:53:37.475Z,76.52
2018-10-18T19:56:06.560Z,77.39
2018-10-18T19:58:35.487Z,77.11
2018-10-18T20:01:04.451Z,77.31
2018-10-18T20:03:33.368Z,76.24
2018-10-18T20:06:02.276Z,77.31
2018-10-18T20:08:31.177Z,77.69
2018-10-18T20:11:00.081Z,77.27
2018-10-18T20:13:29.037Z,76.97
2018-10-18T20:15:57.963Z,77.00
2018-10-18T20:18:26.924Z,76.70
2018-10-18T20:20:55.797Z,76.23
2018-10-18T20:23:24.735Z,76.35
2018-10-18T20:25:53.853Z,76.95
2018-10-18T20:28:22.647Z,77.31
2018-10-18T20:30:51.572Z,78.20
2018-10-18T20:33:20.576Z,77.56
2018-10-18T20:35:49.485Z,78.05
2018-10-18T20:38:18.359Z,78.41
2018-10-18T20:40:47.263Z,78.58
2018-10-18T20:43:16.151Z,78.77
2018-10-18T20:45:45.156Z,79.34
2018-10-18T20:48:14.170Z,78.08
2018-10-18T20:50:43.028Z,78.05
2018-10-18T20:53:11.983Z,78.55
2018-10-18T20:55:40.837Z,78.03
2018-10-18T20:58:09.803Z,77.69
2018-10-18T21:00:38.790Z,77.71
2018-10-18T21:03:07.789Z,77.81
2018-10-18T21:05:36.683Z,78.15
2018-10-18T21:08:05.592Z,78.32
2018-10-18T21:10:34.484Z,77.93
2018-10-18T21:13:03.458Z,78.87
2018-10-18T21:15:32.307Z,78.71
2018-10-18T21:18:01.218Z,78.46
2018-10-18T21:20:30.132Z,78.82
2018-10-18T21:22:59.056Z,79.50
2018-10-18T21:25:27.981Z,79.73
2018-10-18T21:27:56.951Z,78.87
2018-10-18T21:30:25.823Z,79.29
2018-10-18T21:32:54.751Z,79.39
2018-10-18T21:35:23.626Z,79.35
2018-10-18T21:37:52.512Z,79.57
2018-10-18T21:40:21.391Z,80.14
2018-10-18T21:42:50.264Z,80.68
2018-10-18T21:45:19.313Z,80.39
2018-10-18T21:47:48.244Z,79.62
2018-10-18T21:50:17.139Z,80.08
2018-10-18T21:52:46.023Z,80.42
2018-10-18T21:55:14.943Z,80.50
2018-10-18T21:57:43.812Z,80.62
2018-10-18T22:00:16.809Z,80.73
2018-10-18T22:02:46.620Z,81.45
2018-10-18T22:05:16.029Z,81.64
2018-10-18T22:07:45.133Z,81.31
2018-10-18T22:10:14.508Z,81.67
2018-10-18T22:12:43.400Z,81.49
2018-10-18T22:15:12.362Z,81.03
2018-10-18T22:17:41.227Z,81.11
2018-10-18T22:20:10.701Z,80.94
2018-10-18T22:22:39.599Z,80.62
2018-10-18T22:25:09.409Z,81.18
2018-10-18T22:27:38.382Z,81.72
2018-10-18T22:30:08.288Z,81.40
2018-10-18T22:32:37.222Z,82.37
2018-10-18T22:35:06.211Z,82.45
2018-10-18T22:37:35.110Z,82.09
2018-10-18T22:40:04.195Z,82.77
2018-10-18T22:42:33.184Z,82.44
2018-10-18T22:45:02.211Z,81.60
2018-10-18T22:47:31.104Z,81.96
2018-10-18T22:49:59.995Z,81.60
2018-10-18T22:52:28.909Z,81.96
2018-10-18T22:54:57.807Z,81.99
2018-10-18T22:57:26.692Z,82.65
2018-10-18T22:59:55.609Z,83.61
2018-10-18T23:02:24.534Z,83.04
2018-10-18T23:04:53.503Z,83.61
2018-10-18T23:07:22.388Z,83.32
2018-10-18T23:09:51.329Z,83.51
2018-10-18T23:12:20.248Z,83.62
2018-10-18T23:14:49.136Z,83.85
2018-10-18T23:17:18.000Z,83.69
2018-10-18T23:19:46.929Z,83.75
2018-10-18T23:22:15.826Z,83.90
2018-10-18T23:24:44.745Z,83.80
2018-10-18T23:27:12.716Z,84.55
2018-10-18T23:29:41.628Z,84.75
2018-10-18T23:32:10.551Z,84.36
2018-10-18T23:34:39.440Z,84.58
2018-10-18T23:37:08.345Z,85.07
2018-10-18T23:39:37.242Z,85.16
2018-10-18T23:42:06.148Z,85.56
2018-10-18T23:44:35.045Z,85.50
2018-10-18T23:47:04.022Z,86.30
2018-10-18T23:49:32.935Z,86.60
2018-10-18T23:52:01.838Z,86.93
2018-10-18T23:54:30.769Z,87.78
2018-10-18T23:57:00.183Z,87.84
2018-10-18T23:59:29.429Z,86.91
